EDAC/ADC METAR and TAF weather

Enter ICAO airport designator
Station Type Date Time Source
EDAC METAR 2019/12/13 01:20 UTC NOAA

EDAC 130120Z AUTO 13007KT 9999 // NCD 01/M02 Q0991


Station Type Date Time Source
EDAC Decoded METAR 2019/12/13 01:20 UTC NOAA

Altenburg Nobitz, Germany (EDAC) 50-58N 012-30E
Dec 12, 2019 - 08:20 PM EST / 2019.12.13 0120 UTC
Wind: from the SE (130 degrees) at 8 MPH (7 KT):0
Visibility: greater than 7 mile(s):0
Temperature: 33 F (1 C)
Windchill: 26 F (-3 C):1
Dew Point: 28 F (-2 C)
Relative Humidity: 80%
Pressure (altimeter): 29.26 in. Hg (0991 hPa)
ob: EDAC 130120Z AUTO 13007KT 9999 // NCD 01/M02 Q0991
cycle: 1

Station Type Date Time Source
EDAC TAF UTC NOAA

Error!

Example: see airport list